Impacts TAF Board
For situational awareness. Not to be used for flight planning purposes.
IDs:

KINW - Winslow/Lindberg Rgn, AZ, US

Issued at 1720 UTC 01 Feb 2023
Updated at 2155 UTC 01 Feb 2023
Potential Impact None Slight Moderate High
Time2056Z 01/22Z 01/23Z 02/00Z 02/01Z 02/02Z 02/03Z 02/04Z 02/05Z 02/06Z 02/07Z 02/08Z 02/09Z 02/10Z>>
Type OBS PRVL PRVL PRVL PRVL PRVL PRVL PRVL PRVL PRVL PRVL PRVL PRVL PRVL
VIS 10 >6 >6 >6 >6 >6 >6 >6 >6 >6 >6 >6 >6 >6
CIG -- -- -- -- -- -- -- -- -- -- -- -- -- --
Cover CLR SKC SKC SKC SKC SKC SKC SKC SKC SKC SKC SKC SKC SKC
FltCat VFR VFR VFR VFR VFR VFR VFR VFR VFR VFR VFR VFR VFR VFR
WX -- -- -- -- -- -- -- -- -- -- -- -- -- --
WDir 340 320 320 320 320 320 320 320 320 260 260 260 260 260
WSpd 9 8 8 8 8 8 8 8 8 4 4 4 4 4
WGst -- -- -- -- -- -- -- -- -- -- -- -- -- --
WSHgt -- -- -- -- -- -- -- -- -- -- -- -- -- --
WSDir -- -- -- -- -- -- -- -- -- -- -- -- -- --
WSSpd -- -- -- -- -- -- -- -- -- -- -- -- -- --
R04/22
XWnd 9 8 8 8 8 8 8 8 8 1 1 1 1 1
HWnd 2 -1 -1 -1 -1 -1 -1 -1 -1 -4 -4 -4 -4 -4
R11/29
XWnd 6 3 3 3 3 3 3 3 3 -3 -3 -3 -3 -3
HWnd -7 -8 -8 -8 -8 -8 -8 -8 -8 -3 -3 -3 -3 -3

NOTE: LAMP data beyond the time of the TAF data is denoted as LAMP in Type and colored magenta.

Raw TAF
KINW 011720Z 0118/0218 32008KT P6SM SKC
  FM020600 26004KT P6SM SKC


Raw METAR
KINW 012056Z AUTO 34009KT 10SM CLR 05/M11 A3019 RMK AO2 SLP236 T00501106 56022
KINW 011956Z AUTO 32009KT 10SM CLR 04/M12 A3021 RMK AO2 SLP247 T00391117
KINW 011856Z AUTO 34006KT 10SM CLR 02/M12 A3025 RMK AO2 SLP257 T00221117

METAR Board
Radar Display
Forecast Discussion

For situational awareness. Not to be used for flight planning purposes.